Time;durP1;ratioP1;P1;durP2;ratioP2;P2;SDS_P1;SDS_P2;PMS_P1;PMS_P2;Temp;Humidity;BMP_temperature;BMP_pressure;BME280_temperature;BME280_humidity;BME280_pressure;Samples;Min_cycle;Max_cycle;Signal;HPM_P1;HPM_P2
2021/05/26 00:00:59;;;;;;;2.72;1.02;;;;;;;17.18;60.52;101035.48;1694918;84;26174;-59
2021/05/26 00:03:26;;;;;;;4.37;1.00;;;;;;;17.13;60.59;101043.81;1678103;84;25891;-59
2021/05/26 00:05:53;;;;;;;2.50;1.10;;;;;;;17.06;60.64;101050.48;1686825;84;27398;-59
2021/05/26 00:08:34;;;;;;;2.25;0.90;;;;;;;16.97;60.69;101055.06;1675763;85;25704;-59
2021/05/26 00:11:06;;;;;;;2.87;1.17;;;;;;;16.87;60.73;101055.22;1676350;85;25633;-59
2021/05/26 00:13:34;;;;;;;5.00;1.20;;;;;;;16.76;60.98;101056.08;1676129;85;26213;-59
2021/05/26 00:16:02;;;;;;;4.53;1.17;;;;;;;16.70;61.24;101066.59;1676432;84;25631;-59
2021/05/26 00:18:31;;;;;;;7.35;1.30;;;;;;;16.66;61.52;101063.02;1676136;85;27373;-59
2021/05/26 00:20:59;;;;;;;8.63;1.32;;;;;;;16.66;61.83;101061.17;1676164;85;25696;-58
2021/05/26 00:23:27;;;;;;;6.47;0.90;;;;;;;16.68;62.11;101066.42;1680832;85;25368;-59
2021/05/26 00:25:54;;;;;;;7.15;0.90;;;;;;;16.68;62.05;101063.19;1686688;84;26171;-59
2021/05/26 00:28:21;;;;;;;5.62;1.15;;;;;;;16.68;62.27;101065.90;1680568;85;25698;-59
2021/05/26 00:30:51;;;;;;;3.83;1.00;;;;;;;16.68;62.29;101065.06;1670317;85;28031;-59
2021/05/26 00:33:19;;;;;;;7.65;1.25;;;;;;;16.68;62.44;101069.14;1677015;85;25574;-59
2021/05/26 00:35:47;;;;;;;4.35;0.98;;;;;;;16.65;62.35;101062.67;1679488;84;25583;-58
2021/05/26 00:38:15;;;;;;;2.67;0.95;;;;;;;16.59;62.38;101067.78;1680930;83;25722;-59
2021/05/26 00:40:44;;;;;;;1.30;0.98;;;;;;;16.61;62.66;101062.69;1672034;84;25653;-59
2021/05/26 00:43:11;;;;;;;2.30;1.00;;;;;;;16.62;62.31;101061.67;1681427;83;27424;-59
2021/05/26 00:45:39;;;;;;;1.62;0.82;;;;;;;16.60;62.50;101049.60;1681469;83;25635;-59
2021/05/26 00:48:07;;;;;;;5.62;1.25;;;;;;;16.60;62.55;101057.75;1681760;85;25547;-59
2021/05/26 00:50:37;;;;;;;7.90;1.22;;;;;;;16.58;62.75;101055.73;1643260;86;25823;-58
2021/05/26 00:53:08;;;;;;;3.20;1.20;;;;;;;16.57;62.65;101064.90;1633122;87;25583;-59
2021/05/26 00:55:38;;;;;;;5.15;1.00;;;;;;;16.54;62.29;101066.06;1615070;88;27603;-59
2021/05/26 00:58:07;;;;;;;5.22;1.32;;;;;;;16.53;62.34;101075.25;1633273;87;25612;-59
2021/05/26 01:00:37;;;;;;;6.22;1.20;;;;;;;16.50;62.28;101062.49;1671516;85;25548;-59
2021/05/26 01:03:09;;;;;;;2.77;1.60;;;;;;;16.49;62.18;101071.16;1681559;83;26844;-59
2021/05/26 01:05:39;;;;;;;1.90;0.90;;;;;;;16.48;62.11;101078.13;1684768;83;25591;-59
2021/05/26 01:08:06;;;;;;;6.03;1.70;;;;;;;16.47;61.95;101078.62;1698616;84;27926;-59
2021/05/26 01:10:34;;;;;;;6.70;1.20;;;;;;;16.36;62.55;101073.53;1698627;83;26173;-59
2021/05/26 01:13:10;;;;;;;8.08;1.20;;;;;;;16.27;62.43;101079.44;1700165;84;25610;-59
2021/05/26 01:15:38;;;;;;;2.55;0.98;;;;;;;16.20;63.66;101087.39;1703528;84;26326;-59
2021/05/26 01:18:30;;;;;;;1.92;0.95;;;;;;;16.08;63.05;101098.23;1703396;84;25300;-59
2021/05/26 01:21:12;;;;;;;0.80;0.80;;;;;;;16.02;63.43;101105.16;1688659;83;27719;-59
2021/05/26 01:23:42;;;;;;;3.98;1.00;;;;;;;15.95;63.92;101117.16;1703156;84;25602;-58
2021/05/26 01:26:09;;;;;;;1.35;0.78;;;;;;;15.92;63.72;101128.84;1703175;84;25408;-59
2021/05/26 01:28:39;;;;;;;2.40;1.25;;;;;;;15.89;64.87;101124.61;1731374;82;26879;-59
2021/05/26 01:31:11;;;;;;;3.02;0.95;;;;;;;15.77;66.30;101128.08;1732483;82;25555;-59
2021/05/26 01:33:38;;;;;;;6.83;1.15;;;;;;;15.61;67.39;101138.33;1669473;83;28375;-59
2021/05/26 01:36:13;;;;;;;2.87;0.78;;;;;;;15.51;66.39;101138.94;1674997;84;25574;-58
2021/05/26 01:38:41;;;;;;;2.33;0.90;;;;;;;15.52;66.40;101149.27;1673856;85;25569;-58
2021/05/26 01:41:08;;;;;;;3.25;0.90;;;;;;;15.55;67.00;101147.11;1677193;85;25835;-58
2021/05/26 01:43:37;;;;;;;2.30;0.75;;;;;;;15.56;66.97;101154.73;1675557;84;25567;-58
2021/05/26 01:46:04;;;;;;;5.65;0.85;;;;;;;15.54;66.38;101151.31;1674875;85;27935;-58
2021/05/26 01:48:33;;;;;;;3.15;1.15;;;;;;;15.56;67.77;101159.63;1677405;83;25690;-59
2021/05/26 01:51:00;;;;;;;1.55;0.70;;;;;;;15.47;66.96;101175.02;1707083;84;25581;-59
2021/05/26 01:53:29;;;;;;;6.55;0.75;;;;;;;15.48;67.00;101183.98;1673260;85;25657;-59
2021/05/26 01:55:57;;;;;;;1.52;0.65;;;;;;;15.47;66.86;101186.34;1641646;87;25838;-59
2021/05/26 01:58:24;;;;;;;3.08;0.93;;;;;;;15.46;67.51;101188.22;1652375;86;27461;-59
2021/05/26 02:00:53;;;;;;;4.53;0.85;;;;;;;15.43;67.09;101191.23;1650146;85;25713;-59
2021/05/26 02:03:20;;;;;;;8.30;0.95;;;;;;;15.38;67.51;101191.36;1633319;87;25601;-59
2021/05/26 02:05:47;;;;;;;2.15;1.22;;;;;;;15.35;67.69;101192.53;1657350;85;25774;-59
2021/05/26 02:08:14;;;;;;;3.45;1.00;;;;;;;15.36;67.16;101202.88;1653131;85;25656;-59
2021/05/26 02:13:28;;;;;;;3.70;1.00;;;;;;;15.47;67.33;101200.77;1669124;85;25561;-59
2021/05/26 02:15:57;;;;;;;6.22;0.95;;;;;;;15.48;66.93;101198.89;1668910;85;25613;-59
2021/05/26 02:18:24;;;;;;;4.17;0.80;;;;;;;15.54;66.83;101202.84;1669111;85;25733;-59
2021/05/26 02:20:51;;;;;;;1.42;0.72;;;;;;;15.60;66.71;101207.13;1669316;85;25641;-59
2021/05/26 02:23:18;;;;;;;4.92;0.90;;;;;;;15.64;66.55;101212.56;1669226;85;28526;-59
2021/05/26 02:25:46;;;;;;;1.80;0.80;;;;;;;15.71;66.51;101216.02;1669167;85;25642;-59
2021/05/26 02:28:13;;;;;;;4.28;1.02;;;;;;;15.72;66.35;101225.86;1664722;85;25532;-59
2021/05/26 02:30:40;;;;;;;2.98;1.35;;;;;;;15.73;66.13;101227.57;1663315;85;25741;-59
2021/05/26 02:33:07;;;;;;;2.45;0.90;;;;;;;15.73;65.82;101237.06;1679761;84;25585;-59
2021/05/26 02:35:35;;;;;;;4.53;1.90;;;;;;;15.73;65.66;101241.13;1681512;85;27581;-59
2021/05/26 02:38:04;;;;;;;4.95;1.10;;;;;;;15.72;65.43;101244.84;1675245;84;25694;-59
2021/05/26 02:40:34;;;;;;;3.83;1.20;;;;;;;15.70;65.35;101238.72;1652692;85;25651;-59
2021/05/26 02:43:04;;;;;;;2.42;1.35;;;;;;;15.68;65.11;101239.38;1642886;87;26859;-59
2021/05/26 02:45:33;;;;;;;7.12;1.47;;;;;;;15.62;65.35;101249.86;1631250;86;25883;-59
2021/05/26 02:48:00;;;;;;;10.50;1.40;;;;;;;15.57;65.48;101263.55;1631079;87;27405;-59
2021/05/26 02:50:30;;;;;;;1.72;1.00;;;;;;;15.55;65.49;101265.55;1631333;87;25521;-59
2021/05/26 02:52:57;;;;;;;11.60;1.57;;;;;;;15.52;65.57;101274.86;1652751;85;25582;-60
2021/05/26 02:55:26;;;;;;;8.25;1.07;;;;;;;15.54;65.62;101276.05;1652603;86;26303;-59
2021/05/26 02:58:11;;;;;;;5.78;1.50;;;;;;;15.57;65.68;101279.81;1678885;85;25523;-59
2021/05/26 03:00:43;;;;;;;6.28;1.15;;;;;;;15.63;66.00;101290.02;1612587;84;27292;-59
2021/05/26 03:03:15;;;;;;;3.58;0.90;;;;;;;15.67;66.00;101283.78;1678436;84;25717;-59
2021/05/26 03:05:43;;;;;;;2.27;1.10;;;;;;;15.75;66.22;101290.63;1643177;85;25588;-59
2021/05/26 03:08:10;;;;;;;8.10;1.52;;;;;;;15.79;66.25;101291.50;1635080;86;26373;-59
2021/05/26 03:10:39;;;;;;;5.53;1.32;;;;;;;15.86;66.36;101293.64;1661824;86;25487;-59
2021/05/26 03:13:25;;;;;;;7.97;1.87;;;;;;;15.94;66.36;101289.11;1689229;84;27397;-59
2021/05/26 03:15:54;;;;;;;9.48;3.08;;;;;;;16.04;66.81;101266.45;1680649;84;25684;-59
2021/05/26 03:18:23;;;;;;;10.55;1.40;;;;;;;16.12;66.29;101266.48;1690313;84;25715;-59
2021/05/26 03:20:52;;;;;;;5.83;1.80;;;;;;;16.21;66.32;101270.12;1690763;84;25821;-59
2021/05/26 03:23:29;;;;;;;9.43;1.12;;;;;;;16.29;66.16;101282.38;1690246;84;25545;-59
2021/05/26 03:25:57;;;;;;;9.98;1.47;;;;;;;16.40;65.96;101279.39;1690866;84;27433;-59
2021/05/26 03:28:24;;;;;;;3.77;1.30;;;;;;;16.51;66.01;101277.37;1690676;83;25410;-59
2021/05/26 03:30:51;;;;;;;6.92;1.52;;;;;;;16.59;66.09;101268.77;1690562;84;25680;-59
2021/05/26 03:33:20;;;;;;;8.28;1.80;;;;;;;16.67;65.98;101280.18;1716683;82;26278;-59
2021/05/26 03:35:49;;;;;;;6.92;2.37;;;;;;;16.73;65.78;101300.38;1737681;82;25336;-59
2021/05/26 03:38:16;;;;;;;30.70;4.10;;;;;;;16.80;65.46;101307.38;1687117;84;27488;-59
2021/05/26 03:40:58;;;;;;;30.10;5.25;;;;;;;16.85;65.27;101311.83;1707975;83;26158;-59
2021/05/26 03:43:24;;;;;;;17.73;2.72;;;;;;;16.89;64.74;101314.05;1683877;84;25670;-60
2021/05/26 03:45:54;;;;;;;10.15;2.77;;;;;;;16.92;64.46;101325.09;1703997;83;26273;-60
2021/05/26 03:48:22;;;;;;;11.40;3.02;;;;;;;16.95;64.60;101340.24;1701867;83;25997;-59
2021/05/26 03:50:49;;;;;;;18.23;7.67;;;;;;;16.90;64.63;101352.94;1701801;83;27995;-58
2021/05/26 03:53:17;;;;;;;42.95;27.20;;;;;;;16.70;64.92;101366.77;1701741;84;25662;-59
2021/05/26 03:55:45;;;;;;;8.65;2.47;;;;;;;16.57;65.24;101369.92;1701978;84;25654;-58
2021/05/26 03:58:16;;;;;;;9.58;3.77;;;;;;;16.48;65.29;101372.24;1698596;84;26356;-59
2021/05/26 04:00:45;;;;;;;17.70;3.55;;;;;;;16.46;65.58;101378.34;1701842;83;26200;-58
2021/05/26 04:03:15;;;;;;;11.05;2.70;;;;;;;16.33;66.78;101372.49;1701685;83;27419;-59
2021/05/26 04:05:43;;;;;;;10.95;2.40;;;;;;;16.26;67.13;101369.07;1701626;83;25973;-59
2021/05/26 04:08:12;;;;;;;6.85;1.67;;;;;;;16.31;67.31;101339.22;1698154;84;25655;-58
2021/05/26 04:10:39;;;;;;;5.75;1.87;;;;;;;16.38;67.44;101341.14;1696952;83;25777;-58
2021/05/26 04:13:08;;;;;;;8.90;2.17;;;;;;;16.44;67.20;101350.52;1695310;84;25591;-59
2021/05/26 04:15:37;;;;;;;8.20;1.90;;;;;;;16.52;67.26;101354.63;1696264;84;27402;-58
2021/05/26 04:18:08;;;;;;;7.42;2.17;;;;;;;16.64;67.11;101357.05;1684408;84;25421;-58
2021/05/26 04:20:36;;;;;;;12.25;1.98;;;;;;;16.73;67.46;101334.34;1669141;84;25705;-58
2021/05/26 04:23:04;;;;;;;7.03;1.72;;;;;;;16.80;67.83;101330.47;1694892;84;25815;-58
2021/05/26 04:25:32;;;;;;;10.32;1.92;;;;;;;16.81;67.85;101326.22;1698915;83;25332;-59
2021/05/26 04:28:01;;;;;;;8.83;2.33;;;;;;;16.88;67.61;101343.59;1679639;84;28284;-58
2021/05/26 04:30:30;;;;;;;8.43;2.02;;;;;;;16.99;67.78;101349.27;1671717;85;25575;-58
2021/05/26 04:32:58;;;;;;;8.85;1.80;;;;;;;17.09;67.72;101357.27;1671996;84;25705;-58
2021/05/26 04:35:26;;;;;;;7.70;2.58;;;;;;;17.12;67.52;101362.91;1671872;85;26129;-59
2021/05/26 04:37:53;;;;;;;5.00;1.87;;;;;;;17.07;68.26;101369.33;1690562;84;25571;-58
2021/05/26 04:40:20;;;;;;;4.87;2.90;;;;;;;16.95;69.08;101369.61;1681049;84;27761;-60
2021/05/26 04:42:47;;;;;;;7.17;3.77;;;;;;;16.82;70.04;101377.36;1717131;83;25656;-61
2021/05/26 04:45:16;;;;;;;5.45;2.98;;;;;;;16.74;70.13;101386.30;1682527;85;25544;-60
2021/05/26 04:47:43;;;;;;;9.43;2.65;;;;;;;16.79;69.68;101390.77;1715011;83;25761;-61
2021/05/26 04:50:13;;;;;;;13.53;3.60;;;;;;;16.81;69.95;101386.52;1714978;82;25351;-57
2021/05/26 04:52:40;;;;;;;9.55;3.60;;;;;;;16.85;69.96;101385.19;1713740;83;27463;-58
2021/05/26 04:55:10;;;;;;;11.83;3.15;;;;;;;16.94;69.90;101388.81;1717309;83;25617;-58
2021/05/26 04:57:37;;;;;;;10.60;4.33;;;;;;;17.04;69.83;101392.26;1717261;83;25597;-58
2021/05/26 05:00:06;;;;;;;16.70;3.37;;;;;;;17.17;70.26;101393.98;1717254;82;26123;-58
2021/05/26 05:02:33;;;;;;;10.13;3.65;;;;;;;17.24;69.93;101398.27;1717411;82;25600;-58
2021/05/26 05:05:00;;;;;;;10.72;3.50;;;;;;;17.34;70.03;101413.11;1716735;82;28411;-58
2021/05/26 05:07:27;;;;;;;11.30;3.35;;;;;;;17.44;69.84;101411.06;1711010;82;26261;-58
2021/05/26 05:09:54;;;;;;;16.55;4.87;;;;;;;17.53;70.04;101415.52;1669367;85;25578;-58
2021/05/26 05:12:21;;;;;;;9.45;3.52;;;;;;;17.63;69.62;101423.55;1666067;85;26105;-58
2021/05/26 05:14:48;;;;;;;8.30;2.95;;;;;;;17.73;69.39;101422.02;1666095;84;25530;-60
2021/05/26 05:17:15;;;;;;;11.75;3.45;;;;;;;17.85;69.53;101417.09;1665879;86;27492;-60
2021/05/26 05:19:42;;;;;;;6.22;3.00;;;;;;;18.04;69.90;101420.05;1665666;84;25574;-60
2021/05/26 05:22:10;;;;;;;7.90;4.60;;;;;;;18.22;69.70;101427.20;1665808;85;25669;-60
2021/05/26 05:24:37;;;;;;;9.55;3.20;;;;;;;18.24;68.96;101435.53;1666074;85;26998;-59
2021/05/26 05:27:06;;;;;;;8.83;3.45;;;;;;;18.14;69.10;101449.33;1671168;85;25578;-59
2021/05/26 05:29:33;;;;;;;7.80;3.30;;;;;;;17.96;68.98;101451.36;1675384;85;27444;-58
2021/05/26 05:32:00;;;;;;;10.88;4.25;;;;;;;17.82;69.24;101459.11;1674185;84;25812;-58
2021/05/26 05:34:27;;;;;;;7.78;4.00;;;;;;;17.71;69.84;101462.14;1705283;83;25521;-58
2021/05/26 05:36:54;;;;;;;6.33;3.58;;;;;;;17.73;69.98;101460.11;1706723;83;26089;-58
2021/05/26 05:39:21;;;;;;;6.65;3.95;;;;;;;17.78;70.48;101469.14;1707285;83;25699;-58
2021/05/26 05:41:48;;;;;;;6.05;3.40;;;;;;;17.83;70.29;101479.03;1706943;83;27780;-58
2021/05/26 05:44:15;;;;;;;7.72;3.87;;;;;;;17.83;69.96;101476.31;1700262;83;25582;-58
2021/05/26 05:46:42;;;;;;;10.53;4.60;;;;;;;17.75;70.10;101489.38;1700210;84;25563;-58
2021/05/26 05:49:10;;;;;;;9.93;4.00;;;;;;;17.60;70.21;101486.96;1700183;84;25791;-58
2021/05/26 05:51:37;;;;;;;19.00;5.12;;;;;;;17.61;72.08;101487.31;1700225;84;25611;-58
2021/05/26 05:54:04;;;;;;;12.43;3.77;;;;;;;17.50;71.49;101499.32;1700122;84;27420;-58
2021/05/26 05:56:31;;;;;;;11.57;4.30;;;;;;;17.48;71.36;101512.26;1705207;83;25601;-58
2021/05/26 05:58:58;;;;;;;10.43;3.98;;;;;;;17.49;71.56;101513.44;1705458;83;26473;-58
2021/05/26 06:01:25;;;;;;;11.08;3.62;;;;;;;17.54;71.93;101502.07;1705497;83;25750;-60
2021/05/26 06:03:52;;;;;;;16.75;4.10;;;;;;;17.51;71.81;101505.98;1706289;83;25703;-60
2021/05/26 06:06:19;;;;;;;10.20;3.30;;;;;;;17.48;71.73;101509.02;1707277;83;27843;-59
2021/05/26 06:08:48;;;;;;;12.60;3.47;;;;;;;17.49;72.03;101520.24;1672338;83;26442;-58
2021/05/26 06:11:15;;;;;;;10.15;4.03;;;;;;;17.45;72.55;101518.84;1671611;85;25601;-59
2021/05/26 06:13:46;;;;;;;12.43;5.58;;;;;;;17.25;72.63;101518.25;1677236;84;26331;-59
2021/05/26 06:16:10;;;;;;;10.53;5.37;;;;;;;17.09;73.13;101528.52;1671835;84;25653;-59
2021/05/26 06:18:37;;;;;;;10.95;5.97;;;;;;;16.97;73.45;101532.02;1664093;84;28018;-59
2021/05/26 06:21:05;;;;;;;19.67;14.85;;;;;;;16.88;73.88;101534.30;1663167;84;25813;-59
2021/05/26 06:23:32;;;;;;;9.60;6.40;;;;;;;16.82;73.84;101536.31;1672929;84;25617;-59
2021/05/26 06:26:00;;;;;;;9.15;5.60;;;;;;;16.68;73.71;101548.59;1679054;84;26141;-59
2021/05/26 06:28:27;;;;;;;7.08;5.28;;;;;;;16.62;74.53;101542.45;1679427;85;25598;-59
2021/05/26 06:30:57;;;;;;;10.03;5.90;;;;;;;16.53;74.16;101542.38;1676225;85;28564;-60
2021/05/26 06:33:24;;;;;;;12.75;7.03;;;;;;;16.47;74.81;101538.91;1670328;84;25570;-58
2021/05/26 06:35:52;;;;;;;7.12;4.33;;;;;;;16.30;74.30;101553.34;1666176;86;26016;-59
2021/05/26 06:38:19;;;;;;;6.55;4.58;;;;;;;16.09;73.69;101558.07;1675574;84;26080;-59
2021/05/26 06:40:46;;;;;;;6.95;4.17;;;;;;;15.98;73.57;101559.64;1676321;85;25713;-59
2021/05/26 06:43:13;;;;;;;13.78;3.85;;;;;;;15.97;73.67;101576.92;1676262;84;27986;-59
2021/05/26 06:45:40;;;;;;;8.55;4.10;;;;;;;15.90;72.86;101582.13;1676269;85;25585;-59
2021/05/26 06:48:09;;;;;;;7.87;4.00;;;;;;;15.84;72.69;101588.66;1674905;85;25561;-59
2021/05/26 06:50:37;;;;;;;6.03;3.90;;;;;;;15.84;72.90;101593.56;1676357;84;25845;-59
2021/05/26 06:53:04;;;;;;;9.98;4.22;;;;;;;15.80;72.52;101589.42;1676307;85;25608;-59
2021/05/26 06:55:31;;;;;;;4.75;3.00;;;;;;;15.87;72.79;101589.72;1676311;85;27724;-59
2021/05/26 06:57:58;;;;;;;4.30;3.37;;;;;;;15.85;72.41;101589.84;1676389;85;25678;-59
2021/05/26 07:00:25;;;;;;;5.25;3.30;;;;;;;15.67;71.78;101594.33;1676425;85;25586;-59
2021/05/26 07:02:52;;;;;;;4.55;3.37;;;;;;;15.68;72.66;101588.78;1676117;85;26469;-59
2021/05/26 07:05:19;;;;;;;6.03;3.05;;;;;;;15.70;72.48;101604.38;1669807;85;25710;-59
2021/05/26 07:07:46;;;;;;;5.40;3.02;;;;;;;15.72;71.98;101609.67;1665740;83;27914;-59
2021/05/26 07:10:16;;;;;;;8.25;3.47;;;;;;;15.61;71.75;101609.34;1666086;84;25614;-58
2021/05/26 07:12:43;;;;;;;4.55;3.20;;;;;;;15.49;71.73;101616.33;1666072;84;25681;-58
2021/05/26 07:15:13;;;;;;;4.80;2.67;;;;;;;15.46;71.82;101627.45;1666099;86;25753;-59
2021/05/26 07:17:40;;;;;;;9.68;3.08;;;;;;;15.46;71.89;101622.55;1666113;86;25344;-58
2021/05/26 07:20:09;;;;;;;5.80;3.22;;;;;;;15.50;72.06;101623.94;1665694;84;28055;-59
2021/05/26 07:22:36;;;;;;;7.65;4.35;;;;;;;15.67;72.20;101626.87;1646948;86;25687;-58
2021/05/26 07:25:05;;;;;;;6.85;3.22;;;;;;;15.71;71.54;101626.95;1665870;84;25591;-59
2021/05/26 07:27:32;;;;;;;4.62;2.85;;;;;;;15.60;71.48;101626.61;1666091;84;25812;-58
2021/05/26 07:29:59;;;;;;;4.35;2.77;;;;;;;15.61;71.49;101631.91;1666128;84;25579;-57
2021/05/26 07:32:26;;;;;;;4.47;2.77;;;;;;;15.62;71.29;101625.97;1668035;85;27440;-58
2021/05/26 07:34:53;;;;;;;6.45;2.80;;;;;;;15.72;71.48;101632.73;1676311;85;25617;-58
2021/05/26 07:37:20;;;;;;;3.65;2.50;;;;;;;15.89;71.56;101614.81;1672872;85;25726;-58
2021/05/26 07:39:47;;;;;;;4.05;2.92;;;;;;;16.12;72.49;101612.55;1681568;85;25666;-58
2021/05/26 07:42:16;;;;;;;7.53;2.85;;;;;;;16.18;71.49;101620.08;1681687;84;25566;-57
2021/05/26 07:44:44;;;;;;;4.92;2.80;;;;;;;16.23;71.18;101625.05;1682256;85;27412;-58
2021/05/26 07:47:10;;;;;;;3.67;2.87;;;;;;;16.30;71.06;101623.45;1648240;86;25559;-58
2021/05/26 07:49:38;;;;;;;7.05;2.87;;;;;;;16.41;71.18;101615.06;1679053;85;25536;-57
2021/05/26 07:52:09;;;;;;;7.83;2.52;;;;;;;16.48;71.08;101615.30;1676667;84;26162;-58
2021/05/26 07:54:35;;;;;;;4.75;2.60;;;;;;;16.53;70.39;101618.43;1676415;85;25598;-58
2021/05/26 07:57:04;;;;;;;5.30;2.45;;;;;;;16.64;70.40;101619.17;1676381;85;27340;-58
2021/05/26 07:59:31;;;;;;;6.12;2.42;;;;;;;16.67;69.86;101617.03;1676572;85;25393;-58
2021/05/26 08:01:59;;;;;;;5.20;2.60;;;;;;;16.72;69.83;101623.33;1676526;84;25566;-58
2021/05/26 08:04:26;;;;;;;6.65;3.10;;;;;;;16.79;69.77;101609.48;1676596;85;26125;-58
2021/05/26 08:06:52;;;;;;;6.47;3.00;;;;;;;16.83;69.80;101611.38;1676661;84;25676;-58
2021/05/26 08:09:20;;;;;;;10.68;3.72;;;;;;;16.90;69.66;101621.45;1693327;83;28036;-59
2021/05/26 08:11:47;;;;;;;4.67;3.58;;;;;;;16.94;69.22;101625.25;1701719;83;25791;-58
2021/05/26 08:14:14;;;;;;;4.85;2.70;;;;;;;16.99;69.13;101628.34;1688638;84;25610;-59
2021/05/26 08:16:41;;;;;;;4.33;2.87;;;;;;;17.02;68.90;101628.03;1744361;82;26092;-59
2021/05/26 08:19:08;;;;;;;6.25;2.92;;;;;;;16.93;68.43;101626.23;1727320;82;26214;-59
2021/05/26 08:21:34;;;;;;;8.38;3.17;;;;;;;16.78;68.71;101634.95;1713072;83;27801;-60
2021/05/26 08:24:01;;;;;;;6.03;3.08;;;;;;;16.76;68.82;101633.41;1712103;83;25852;-59
2021/05/26 08:26:28;;;;;;;6.12;3.17;;;;;;;16.79;68.88;101637.15;1716948;82;25592;-59
2021/05/26 08:28:55;;;;;;;4.10;2.58;;;;;;;16.84;68.92;101633.48;1715147;82;25818;-59
2021/05/26 08:31:23;;;;;;;4.75;2.80;;;;;;;16.82;68.45;101630.89;1743284;82;25741;-59
2021/05/26 08:33:50;;;;;;;6.08;2.52;;;;;;;16.89;68.29;101624.33;1695019;82;28053;-59
2021/05/26 08:36:17;;;;;;;3.77;2.60;;;;;;;17.04;68.99;101630.94;1687717;84;25708;-59
2021/05/26 08:38:43;;;;;;;7.58;2.58;;;;;;;17.14;68.05;101634.06;1708696;82;25644;-59
2021/05/26 08:41:19;;;;;;;9.03;3.22;;;;;;;17.18;67.68;101639.03;1706426;83;26323;-59
2021/05/26 08:43:44;;;;;;;7.70;2.83;;;;;;;17.28;67.47;101629.43;1709528;82;25628;-59
2021/05/26 08:46:12;;;;;;;3.67;2.60;;;;;;;17.35;67.07;101636.42;1726786;82;29463;-59
2021/05/26 08:48:39;;;;;;;4.72;2.58;;;;;;;17.34;66.51;101647.81;1713224;83;25655;-59
2021/05/26 08:51:06;;;;;;;5.20;2.83;;;;;;;17.26;66.62;101641.48;1707824;83;25636;-59
2021/05/26 08:53:34;;;;;;;5.87;2.65;;;;;;;17.14;66.55;101636.78;1713186;82;26333;-59
2021/05/26 08:56:03;;;;;;;6.25;2.80;;;;;;;17.25;66.87;101638.41;1718647;83;25857;-59
2021/05/26 08:58:38;;;;;;;3.05;2.70;;;;;;;17.36;66.83;101639.48;1695780;83;27996;-59
2021/05/26 09:01:06;;;;;;;7.03;2.80;;;;;;;17.43;66.73;101639.22;1658230;85;25627;-58
2021/05/26 09:03:35;;;;;;;9.50;2.62;;;;;;;17.53;66.74;101634.50;1685538;84;26304;-58
2021/05/26 09:06:05;;;;;;;3.95;2.27;;;;;;;17.46;65.61;101639.40;1698544;84;25751;-58
2021/05/26 09:08:32;;;;;;;6.33;3.30;;;;;;;17.30;65.88;101643.70;1696148;83;25614;-58
2021/05/26 09:11:02;;;;;;;3.98;2.90;;;;;;;17.14;66.12;101648.53;1662996;85;28531;-58
2021/05/26 09:13:39;;;;;;;10.68;2.67;;;;;;;17.02;66.55;101647.06;1656913;85;25687;-58
2021/05/26 09:16:28;;;;;;;3.60;2.90;;;;;;;17.04;66.75;101647.25;1662457;84;25893;-58
2021/05/26 09:19:04;;;;;;;5.33;2.58;;;;;;;17.09;66.78;101645.41;1661357;85;26147;-58
2021/05/26 09:21:39;;;;;;;11.12;3.10;;;;;;;16.99;66.41;101643.29;1675003;85;25792;-59
2021/05/26 09:24:23;;;;;;;7.67;3.10;;;;;;;16.89;66.54;101651.02;1675955;85;27382;-59
2021/05/26 09:26:56;;;;;;;6.80;2.77;;;;;;;16.85;66.95;101644.18;1662049;84;25809;-59
2021/05/26 09:29:26;;;;;;;4.65;2.27;;;;;;;16.92;67.49;101647.13;1675944;84;25703;-59
2021/05/26 09:32:15;;;;;;;9.03;3.10;;;;;;;16.99;66.98;101648.23;1675518;84;25730;-59
2021/05/26 09:34:46;;;;;;;6.03;2.70;;;;;;;17.03;66.96;101645.53;1663338;85;25677;-59
2021/05/26 09:37:26;;;;;;;4.78;2.55;;;;;;;17.10;66.77;101641.69;1670663;84;27449;-59
2021/05/26 09:40:07;;;;;;;5.85;2.12;;;;;;;17.14;66.68;101644.94;1676007;85;25625;-59
2021/05/26 09:42:36;;;;;;;5.92;2.45;;;;;;;17.19;66.69;101647.54;1672770;85;25607;-59
2021/05/26 09:45:12;;;;;;;4.30;2.50;;;;;;;17.23;66.24;101643.16;1675449;85;26487;-59
2021/05/26 09:47:49;;;;;;;4.80;2.30;;;;;;;17.28;66.67;101642.16;1675197;85;25734;-59
2021/05/26 09:50:35;;;;;;;3.80;2.30;;;;;;;17.41;66.30;101641.24;1670279;85;28149;-58
2021/05/26 09:53:12;;;;;;;4.40;2.22;;;;;;;17.47;66.19;101651.47;1674762;85;26023;-58
2021/05/26 09:55:48;;;;;;;2.58;2.05;;;;;;;17.48;65.94;101646.91;1676235;84;25677;-59
2021/05/26 09:58:17;;;;;;;11.40;2.30;;;;;;;17.46;65.81;101655.72;1679650;83;25950;-58
2021/05/26 10:00:48;;;;;;;8.13;2.45;;;;;;;17.45;65.86;101658.93;1675416;85;25699;-58
2021/05/26 10:03:15;;;;;;;10.28;2.47;;;;;;;17.52;65.93;101651.86;1672956;84;27960;-58
2021/05/26 10:05:43;;;;;;;5.75;2.40;;;;;;;17.44;65.16;101655.02;1671737;85;25925;-58
2021/05/26 10:08:28;;;;;;;5.40;2.20;;;;;;;17.36;65.51;101651.23;1672545;84;25592;-59
2021/05/26 10:11:15;;;;;;;4.12;2.35;;;;;;;17.35;65.70;101648.17;1672600;85;25845;-59
2021/05/26 10:13:48;;;;;;;7.50;2.60;;;;;;;17.35;65.81;101653.61;1673319;85;25870;-58
2021/05/26 10:16:18;;;;;;;4.60;2.52;;;;;;;17.42;65.83;101654.32;1661471;85;27502;-59
2021/05/26 10:18:47;;;;;;;3.92;2.02;;;;;;;17.52;66.03;101654.58;1676167;85;25628;-58
2021/05/26 10:21:18;;;;;;;9.18;2.40;;;;;;;17.56;65.67;101660.55;1686278;83;26345;-59
2021/05/26 10:23:45;;;;;;;6.35;2.72;;;;;;;17.49;65.20;101650.81;1705550;83;25750;-58
2021/05/26 10:26:12;;;;;;;5.03;2.30;;;;;;;17.51;65.33;101656.08;1677027;83;25785;-58
2021/05/26 10:28:39;;;;;;;7.75;2.98;;;;;;;17.57;65.37;101658.67;1688425;83;27426;-59
2021/05/26 10:31:07;;;;;;;8.08;2.42;;;;;;;17.58;65.23;101658.50;1678506;84;25690;-59
2021/05/26 10:33:48;;;;;;;4.47;2.22;;;;;;;17.59;65.13;101653.41;1681000;84;25828;-59
2021/05/26 10:36:15;;;;;;;8.28;2.62;;;;;;;17.69;65.44;101656.03;1693936;83;25844;-59
2021/05/26 10:39:02;;;;;;;16.65;3.30;;;;;;;17.86;65.46;101652.03;1681345;85;25719;-59
2021/05/26 10:41:48;;;;;;;9.78;2.12;;;;;;;17.92;64.40;101647.28;1684613;83;28145;-60
2021/05/26 10:44:15;;;;;;;6.25;2.77;;;;;;;18.04;64.73;101639.70;1654713;84;25489;-60
2021/05/26 10:46:45;;;;;;;8.75;2.55;;;;;;;18.26;64.68;101639.11;1651219;86;25620;-59
2021/05/26 10:49:12;;;;;;;8.90;2.50;;;;;;;18.39;63.78;101634.55;1643051;87;25769;-61
2021/05/26 10:51:59;;;;;;;10.70;4.45;;;;;;;18.45;62.74;101634.39;1643037;85;25734;-60
2021/05/26 10:54:45;;;;;;;8.15;2.52;;;;;;;18.45;62.76;101627.58;1685299;82;27419;-60
2021/05/26 10:57:12;;;;;;;7.97;2.00;;;;;;;18.58;62.96;101626.56;1654034;85;25714;-60
2021/05/26 10:59:39;;;;;;;6.95;1.98;;;;;;;18.46;61.78;101626.05;1664507;85;25329;-60
2021/05/26 11:02:10;;;;;;;4.47;2.55;;;;;;;18.55;62.30;101626.05;1663579;84;25940;-60
2021/05/26 11:04:41;;;;;;;6.25;2.08;;;;;;;18.64;62.30;101637.30;1647278;87;25710;-60
2021/05/26 11:07:32;;;;;;;5.50;2.52;;;;;;;18.71;62.66;101638.85;1632347;86;27493;-61
2021/05/26 11:10:07;;;;;;;6.90;2.30;;;;;;;18.73;62.38;101636.30;1635115;86;25658;-59
2021/05/26 11:13:00;;;;;;;7.17;2.58;;;;;;;18.58;61.03;101636.10;1664771;85;25623;-60
2021/05/26 11:15:45;;;;;;;4.62;2.47;;;;;;;18.47;61.53;101636.41;1679749;85;26360;-59
2021/05/26 11:18:28;;;;;;;5.37;2.65;;;;;;;18.44;61.80;101629.95;1675574;85;25565;-59
2021/05/26 11:20:46;;;;;;;6.03;2.50;;;;;;;18.54;61.84;101632.03;1678828;83;27594;-58
2021/05/26 11:23:15;;;;;;;3.98;2.20;;;;;;;18.61;61.27;101628.09;1704438;83;25552;-58
2021/05/26 11:25:53;;;;;;;9.25;2.67;;;;;;;18.67;61.15;101631.53;1691466;83;25632;-58
2021/05/26 11:28:31;;;;;;;5.65;2.47;;;;;;;18.69;61.22;101630.83;1676762;83;25763;-58
2021/05/26 11:31:02;;;;;;;4.20;2.40;;;;;;;18.79;61.53;101626.59;1707543;82;25666;-58
2021/05/26 11:33:30;;;;;;;3.55;2.02;;;;;;;18.90;61.08;101628.98;1708011;82;27995;-58
2021/05/26 11:36:09;;;;;;;3.58;2.15;;;;;;;18.83;61.11;101632.55;1709588;83;25642;-58
2021/05/26 11:38:26;;;;;;;4.22;1.80;;;;;;;18.86;61.29;101626.25;1705300;82;25771;-58